createdAt,value
2018-12-03T17:23:34.140Z,12.70
2018-12-03T17:24:34.097Z,12.68
2018-12-03T17:25:34.148Z,12.65
2018-12-03T17:26:34.203Z,12.64
2018-12-03T17:27:34.264Z,12.65
2018-12-03T17:28:34.328Z,12.76
2018-12-03T17:29:34.389Z,12.78
2018-12-03T17:30:34.440Z,12.73
2018-12-03T17:31:34.580Z,12.86
2018-12-03T17:32:34.560Z,12.86
2018-12-03T17:33:34.632Z,12.78
2018-12-03T17:34:34.692Z,12.82
2018-12-03T17:35:34.740Z,12.83
2018-12-03T17:36:34.804Z,12.80
2018-12-03T17:37:34.864Z,12.86
2018-12-03T17:38:34.949Z,12.80
2018-12-03T17:39:34.996Z,12.80
2018-12-03T17:40:35.049Z,12.78
2018-12-03T17:41:35.116Z,12.83
2018-12-03T17:42:35.174Z,12.85
2018-12-03T17:43:35.249Z,12.85
2018-12-03T17:44:35.297Z,12.87
2018-12-03T17:45:35.361Z,12.85
2018-12-03T17:46:35.420Z,12.85
2018-12-03T17:47:35.486Z,12.85
2018-12-03T17:48:35.553Z,12.90
2018-12-03T17:49:35.617Z,12.86
2018-12-03T17:50:35.669Z,12.85
2018-12-03T17:51:35.733Z,12.86
2018-12-03T17:52:35.797Z,12.86
2018-12-03T17:53:35.865Z,12.80
2018-12-03T17:54:35.930Z,12.86
2018-12-03T17:55:35.986Z,12.87
2018-12-03T17:56:36.092Z,12.87
2018-12-03T17:57:36.110Z,12.91
2018-12-03T17:58:36.197Z,12.90
2018-12-03T17:59:36.236Z,12.90
2018-12-03T18:00:36.298Z,12.93
2018-12-03T18:01:36.362Z,12.91
2018-12-03T18:02:36.426Z,12.91
2018-12-03T18:03:36.501Z,12.91
2018-12-03T18:04:36.558Z,12.95
2018-12-03T18:05:36.615Z,12.91
2018-12-03T18:06:36.675Z,12.93
2018-12-03T18:07:36.740Z,12.93
2018-12-03T18:08:36.810Z,12.95
2018-12-03T18:09:36.870Z,12.93
2018-12-03T18:10:36.927Z,12.98
2018-12-03T18:11:36.991Z,12.90
2018-12-03T18:12:37.055Z,12.98
2018-12-03T18:13:37.131Z,12.93
2018-12-03T18:14:37.179Z,12.91
2018-12-03T18:15:37.247Z,12.91
2018-12-03T18:16:37.308Z,12.93
2018-12-03T18:17:37.367Z,12.97
2018-12-03T18:18:37.439Z,12.93
2018-12-03T18:19:37.503Z,12.95
2018-12-03T18:20:37.554Z,12.97
2018-12-03T18:21:37.619Z,12.93
2018-12-03T18:22:37.683Z,13.03
2018-12-03T18:23:37.757Z,13.03
2018-12-03T18:24:37.819Z,13.09
2018-12-03T18:25:37.871Z,13.05
2018-12-03T18:26:37.938Z,13.09
2018-12-03T18:27:37.997Z,13.11
2018-12-03T18:28:38.071Z,13.15
2018-12-03T18:29:38.131Z,13.09
2018-12-03T18:30:38.194Z,13.19
2018-12-03T18:31:38.247Z,13.18
2018-12-03T18:32:38.312Z,13.15
2018-12-03T18:33:38.396Z,13.19
2018-12-03T18:34:38.447Z,13.16
2018-12-03T18:35:38.500Z,13.15
2018-12-03T18:36:38.564Z,13.15
2018-12-03T18:37:38.629Z,13.12
2018-12-03T18:38:38.697Z,13.20
2018-12-03T18:39:38.764Z,13.18
2018-12-03T18:40:38.816Z,13.20
2018-12-03T18:41:38.880Z,13.20
2018-12-03T18:42:38.940Z,13.16
2018-12-03T18:43:39.012Z,13.20
2018-12-03T18:44:39.082Z,13.19
2018-12-03T18:45:39.132Z,13.20
2018-12-03T18:46:39.194Z,13.22
2018-12-03T18:47:39.257Z,13.25
2018-12-03T18:48:39.335Z,13.31
2018-12-03T18:49:39.393Z,13.30
2018-12-03T18:50:39.449Z,13.38
2018-12-03T18:51:39.510Z,13.28
2018-12-03T18:52:39.579Z,13.18
2018-12-03T18:53:39.646Z,13.30
2018-12-03T18:54:39.705Z,13.27
2018-12-03T18:55:39.764Z,13.31
2018-12-03T18:56:39.825Z,13.30
2018-12-03T18:57:39.889Z,13.28
2018-12-03T18:58:39.966Z,13.31
2018-12-03T18:59:40.021Z,13.33
2018-12-03T19:00:40.081Z,13.31
2018-12-03T19:01:40.141Z,13.33
2018-12-03T19:02:40.201Z,13.33
2018-12-03T19:03:40.297Z,13.30
2018-12-03T19:04:40.330Z,13.28
2018-12-03T19:05:40.400Z,13.33
2018-12-03T19:06:40.454Z,13.44
2018-12-03T19:07:40.519Z,13.42
2018-12-03T19:08:40.589Z,13.35
2018-12-03T19:09:40.659Z,13.37
2018-12-03T19:10:40.707Z,13.33
2018-12-03T19:11:40.771Z,13.33
2018-12-03T19:12:40.838Z,13.37
2018-12-03T19:13:40.904Z,13.30
2018-12-03T19:14:40.982Z,13.35
2018-12-03T19:15:41.024Z,13.27
2018-12-03T19:16:41.086Z,13.33
2018-12-03T19:17:41.150Z,13.28
2018-12-03T19:18:41.214Z,13.33
2018-12-03T19:19:41.290Z,13.33
2018-12-03T19:20:41.339Z,13.31
2018-12-03T19:21:41.404Z,13.37
2018-12-03T19:22:41.462Z,13.27
2018-12-03T19:23:41.526Z,13.31
2018-12-03T19:24:41.596Z,13.31
2018-12-03T19:25:41.662Z,13.31
2018-12-03T19:26:41.721Z,13.35
2018-12-03T19:27:41.779Z,13.31
2018-12-03T19:28:41.843Z,13.27
2018-12-03T19:29:41.911Z,13.37
2018-12-03T19:30:41.977Z,13.31
2018-12-03T19:31:42.034Z,13.27
2018-12-03T19:32:42.096Z,13.31
2018-12-03T19:33:42.155Z,13.25
2018-12-03T19:34:42.458Z,13.28
2018-12-03T19:35:42.398Z,13.30
2018-12-03T19:36:42.342Z,13.23
2018-12-03T19:37:42.408Z,13.27
2018-12-03T19:38:42.745Z,13.15
2018-12-03T19:39:42.751Z,13.25
2018-12-03T19:40:42.605Z,13.16
2018-12-03T19:41:42.660Z,13.16
2018-12-03T19:42:42.721Z,13.13
2018-12-03T19:43:42.783Z,13.09
2018-12-03T19:44:42.856Z,13.16
2018-12-03T19:45:42.919Z,13.11
2018-12-03T19:46:42.971Z,13.12
2018-12-03T19:47:43.035Z,13.09
2018-12-03T19:48:43.099Z,13.09
2018-12-03T19:49:43.255Z,12.97
2018-12-03T19:50:43.227Z,13.08
2018-12-03T19:51:43.287Z,13.04
2018-12-03T19:52:43.351Z,13.08
2018-12-03T19:53:43.417Z,13.03
2018-12-03T19:54:43.487Z,13.01
2018-12-03T19:55:43.552Z,13.01
2018-12-03T19:56:43.604Z,13.09
2018-12-03T19:57:43.671Z,13.08
2018-12-03T19:58:43.727Z,13.01
2018-12-03T19:59:43.802Z,12.98
2018-12-03T20:00:43.864Z,13.01
2018-12-03T20:01:43.916Z,13.05
2018-12-03T20:02:43.980Z,13.11
2018-12-03T20:03:44.044Z,13.08
2018-12-03T20:04:44.103Z,13.15
2018-12-03T20:05:44.300Z,13.16
2018-12-03T20:06:44.232Z,13.19
2018-12-03T20:07:44.292Z,13.27
2018-12-03T20:08:44.355Z,13.27
2018-12-03T20:09:44.424Z,13.27
2018-12-03T20:10:44.492Z,13.25
2018-12-03T20:11:44.568Z,13.19
2018-12-03T20:12:44.615Z,13.28
2018-12-03T20:13:44.672Z,13.35
2018-12-03T20:14:44.732Z,13.22
2018-12-03T20:15:44.805Z,13.28
2018-12-03T20:16:44.869Z,13.25
2018-12-03T20:17:44.924Z,13.27
2018-12-03T20:18:44.985Z,13.30
2018-12-03T20:19:45.048Z,13.28
2018-12-03T20:20:45.137Z,13.22
2018-12-03T20:21:45.176Z,13.20
2018-12-03T20:22:45.240Z,13.16
2018-12-03T20:23:45.305Z,13.09
2018-12-03T20:24:45.365Z,13.05
2018-12-03T20:25:45.437Z,12.98
2018-12-03T20:26:45.497Z,12.97
2018-12-03T20:27:45.561Z,12.80
2018-12-03T20:28:45.617Z,12.86
2018-12-03T20:29:45.681Z,12.97
2018-12-03T20:30:45.748Z,12.90
2018-12-03T20:31:45.812Z,12.90
2018-12-03T20:32:45.869Z,12.87
2018-12-03T20:33:45.929Z,12.80
2018-12-03T20:34:45.996Z,12.86
2018-12-03T20:35:46.065Z,12.75
2018-12-03T20:36:46.129Z,12.75
2018-12-03T20:37:46.181Z,12.86
2018-12-03T20:38:46.245Z,12.72
2018-12-03T20:39:46.305Z,12.80
2018-12-03T20:40:46.377Z,12.75
2018-12-03T20:41:46.441Z,12.75
2018-12-03T20:42:46.493Z,12.78
2018-12-03T20:43:46.558Z,12.73
2018-12-03T20:44:46.621Z,12.78
2018-12-03T20:45:46.689Z,12.76
2018-12-03T20:46:46.754Z,12.72
2018-12-03T20:47:46.818Z,12.79
2018-12-03T20:48:46.874Z,12.78
2018-12-03T20:49:46.938Z,12.73
2018-12-03T20:50:47.007Z,12.72
2018-12-03T20:51:47.070Z,12.75
2018-12-03T20:52:48.606Z,12.60
2018-12-03T20:53:47.190Z,12.60
2018-12-03T20:54:47.250Z,12.58
2018-12-03T20:55:47.314Z,12.58
2018-12-03T20:56:47.486Z,12.57
2018-12-03T20:57:47.438Z,12.55
2018-12-03T20:58:47.510Z,12.57
2018-12-03T20:59:47.562Z,12.53
2018-12-03T21:00:47.626Z,12.49
2018-12-03T21:01:47.709Z,12.53
2018-12-03T21:02:47.758Z,12.54
2018-12-03T21:03:47.818Z,12.50
2018-12-03T21:04:47.878Z,12.50
2018-12-03T21:05:47.942Z,12.53
2018-12-03T21:06:48.010Z,12.53
2018-12-03T21:07:48.086Z,12.60
2018-12-03T21:08:48.131Z,12.58
2018-12-03T21:09:48.240Z,12.60
2018-12-03T21:10:48.254Z,12.57
2018-12-03T21:11:48.419Z,12.58
2018-12-03T21:12:48.379Z,12.55
2018-12-03T21:13:48.447Z,12.61
2018-12-03T21:14:48.507Z,12.60
2018-12-03T21:15:48.566Z,12.62
2018-12-03T21:16:49.091Z,12.62
2018-12-03T21:17:48.695Z,12.72
2018-12-03T21:18:48.755Z,12.65
2018-12-03T21:19:48.819Z,12.68
2018-12-03T21:20:48.883Z,12.70
2018-12-03T21:21:48.943Z,12.57
2018-12-03T21:22:49.024Z,12.68
2018-12-03T21:23:49.071Z,12.64
2018-12-03T21:24:49.139Z,12.65
2018-12-03T21:25:49.196Z,12.70
2018-12-03T21:26:49.260Z,12.68
2018-12-03T21:27:49.562Z,12.72
2018-12-03T21:28:49.383Z,12.67
2018-12-03T21:29:49.451Z,12.72
2018-12-03T21:30:49.507Z,12.73
2018-12-03T21:31:49.572Z,12.72
2018-12-03T21:32:49.648Z,12.67
2018-12-03T21:33:49.715Z,12.60
2018-12-03T21:34:49.766Z,12.65
2018-12-03T21:35:49.825Z,12.73
2018-12-03T21:36:49.888Z,12.67
2018-12-03T21:37:49.955Z,12.67
2018-12-03T21:38:50.020Z,12.64
2018-12-03T21:39:50.076Z,12.65
2018-12-03T21:40:50.140Z,12.62
2018-12-03T21:41:50.200Z,12.70
2018-12-03T21:42:50.312Z,12.67
2018-12-03T21:43:50.328Z,12.61
2018-12-03T21:44:50.392Z,12.55
2018-12-03T21:45:50.452Z,12.58
2018-12-03T21:46:50.513Z,12.57
2018-12-03T21:47:50.604Z,12.54
2018-12-03T21:48:50.650Z,12.49
2018-12-03T21:49:50.705Z,12.47
2018-12-03T21:50:50.769Z,12.53
2018-12-03T21:51:50.829Z,12.57
2018-12-03T21:52:50.898Z,12.54
2018-12-03T21:53:50.961Z,12.53
2018-12-03T21:54:51.017Z,12.49
2018-12-03T21:55:51.077Z,12.54
2018-12-03T21:56:51.141Z,12.54
2018-12-03T21:57:51.265Z,12.57
2018-12-03T21:58:51.268Z,12.55
2018-12-03T21:59:56.730Z,12.55
2018-12-03T22:00:51.393Z,12.55
2018-12-03T22:01:51.458Z,12.49
2018-12-03T22:02:51.526Z,12.50
2018-12-03T22:03:51.589Z,12.47
2018-12-03T22:04:51.645Z,12.50
2018-12-03T22:05:51.710Z,12.50
2018-12-03T22:06:51.775Z,12.47
2018-12-03T22:07:51.838Z,12.54
2018-12-03T22:08:51.902Z,12.46
2018-12-03T22:09:51.957Z,12.45
2018-12-03T22:10:52.018Z,12.49
2018-12-03T22:11:52.086Z,12.42
2018-12-03T22:12:52.174Z,12.50
2018-12-03T22:13:52.265Z,12.39
2018-12-03T22:14:52.270Z,12.43
2018-12-03T22:15:52.334Z,12.37
2018-12-03T22:16:52.394Z,12.36
2018-12-03T22:17:52.466Z,12.39
2018-12-03T22:18:52.538Z,12.39
2018-12-03T22:19:52.582Z,12.40
2018-12-03T22:20:52.646Z,12.47
2018-12-03T22:21:52.711Z,12.39
2018-12-03T22:22:52.781Z,12.39
2018-12-03T22:23:52.846Z,12.31
2018-12-03T22:24:52.899Z,12.43
2018-12-03T22:25:52.959Z,12.29
2018-12-03T22:26:53.030Z,12.36
2018-12-03T22:27:53.199Z,12.35
2018-12-03T22:28:53.147Z,12.39
2018-12-03T22:29:53.211Z,12.32
2018-12-03T22:30:53.270Z,12.29
2018-12-03T22:31:53.338Z,12.32
2018-12-03T22:32:53.407Z,12.32
2018-12-03T22:33:53.477Z,12.29
2018-12-03T22:34:53.523Z,12.32
2018-12-03T22:35:53.595Z,12.25
2018-12-03T22:36:53.651Z,12.29
2018-12-03T22:37:53.722Z,12.29
2018-12-03T22:38:53.787Z,12.29
2018-12-03T22:39:53.841Z,12.31
2018-12-03T22:40:53.899Z,12.27
2018-12-03T22:41:53.963Z,12.25
2018-12-03T22:42:54.033Z,12.29
2018-12-03T22:43:54.098Z,12.28
2018-12-03T22:44:54.189Z,12.28
2018-12-03T22:45:54.223Z,12.25
2018-12-03T22:46:54.275Z,12.25
2018-12-03T22:47:54.363Z,12.18
2018-12-03T22:48:54.403Z,12.25
2018-12-03T22:49:54.464Z,12.32
2018-12-03T22:50:54.531Z,12.25
2018-12-03T22:51:54.593Z,12.22
2018-12-03T22:52:54.659Z,12.21
2018-12-03T22:53:54.725Z,12.25
2018-12-03T22:54:54.776Z,12.22
2018-12-03T22:55:54.840Z,12.21
2018-12-03T22:56:54.904Z,12.20
2018-12-03T22:57:54.972Z,12.18
2018-12-03T22:58:55.036Z,12.18
2018-12-03T22:59:55.092Z,12.18
2018-12-03T23:00:55.151Z,12.15
2018-12-03T23:01:55.218Z,12.15
2018-12-03T23:02:55.400Z,12.24
2018-12-03T23:03:55.340Z,12.29
2018-12-03T23:04:55.404Z,12.20
2018-12-03T23:05:55.468Z,12.27
2018-12-03T23:06:55.528Z,12.20
2018-12-03T23:07:55.609Z,12.24
2018-12-03T23:08:55.663Z,12.24
2018-12-03T23:09:55.724Z,12.22
2018-12-03T23:10:55.780Z,12.17
2018-12-03T23:11:55.844Z,12.18
2018-12-03T23:12:55.912Z,12.25
2018-12-03T23:13:55.975Z,12.28
2018-12-03T23:14:56.028Z,12.24
2018-12-03T23:15:56.092Z,12.20
2018-12-03T23:16:56.156Z,12.20
2018-12-03T23:17:56.280Z,12.22
2018-12-03T23:18:56.283Z,12.17
2018-12-03T23:19:56.344Z,12.22
2018-12-03T23:20:56.408Z,12.12
2018-12-03T23:21:56.468Z,12.17
2018-12-03T23:22:56.544Z,12.18
2018-12-03T23:23:56.604Z,12.17
2018-12-03T23:24:56.656Z,12.12
2018-12-03T23:25:56.721Z,12.18
2018-12-03T23:26:56.785Z,12.00
2018-12-03T23:27:56.852Z,12.04
2018-12-03T23:28:56.918Z,12.02
2018-12-03T23:29:56.968Z,12.00
2018-12-03T23:30:57.044Z,12.03
2018-12-03T23:31:57.096Z,12.03
2018-12-03T23:32:57.180Z,12.07
2018-12-03T23:33:57.221Z,12.03
2018-12-03T23:34:57.282Z,11.95
2018-12-03T23:35:57.345Z,11.97
2018-12-03T23:36:57.409Z,11.88
2018-12-03T23:37:57.476Z,11.91
2018-12-03T23:38:57.551Z,11.81
2018-12-03T23:39:57.596Z,11.83
2018-12-03T23:40:57.663Z,11.77
2018-12-03T23:41:57.725Z,11.70
2018-12-03T23:42:57.793Z,11.68
2018-12-03T23:43:57.857Z,11.69
2018-12-03T23:44:57.909Z,11.70
2018-12-03T23:45:57.973Z,11.70
2018-12-03T23:46:58.033Z,11.65
2018-12-03T23:47:58.209Z,11.62
2018-12-03T23:48:58.161Z,11.68
2018-12-03T23:49:58.221Z,11.68
2018-12-03T23:50:58.289Z,11.66
2018-12-03T23:51:58.345Z,11.55
2018-12-03T23:52:58.418Z,11.59
2018-12-03T23:53:58.481Z,11.52
2018-12-03T23:54:58.540Z,11.51
2018-12-03T23:55:58.601Z,11.51
2018-12-03T23:56:58.662Z,11.52
2018-12-03T23:57:58.730Z,11.62
2018-12-03T23:58:58.794Z,11.55
2018-12-03T23:59:58.846Z,11.51
